ADDS METAR Data INFO
IDs: Format: Raw Decoded Include TAF

Data at: 1858 UTC 23 Apr 2018

KGCC 231853Z AUTO 34015KT 10SM OVC040 12/04 A3005 RMK AO2 SLP166 T01170044 $
KGCC 231753Z AUTO 35014KT 10SM FEW050 SCT110 14/06 A3004 RMK AO2 SLP161 T01390056 10144 20033 58004 $
KGCC 231653Z AUTO 33011KT 10SM 12/05 A3006 RMK AO2 SLP160 T01220050 $
KGCC 231553Z AUTO 12/06 A3005 RMK AO2 SLP161 T01220056 PWINO $
KGCC 231453Z AUTO A3005 RMK AO2 SLPNO 51006 PWINO FZRANO $
KGCC 231353Z AUTO 04003KT 10SM BKN100 08/04 A3005 RMK AO2 SLP159 T00780044
KGCC 231253Z AUTO 00000KT 10SM CLR 04/02 A3004 RMK AO2 SLP155 T00440022 $
KGCC 231153Z AUTO 35007KT 10SM CLR 04/02 A3003 RMK AO2 SLP151 T00440017 10094 20033 53002 $
KGCC 231053Z AUTO 00000KT 10SM CLR 06/02 A3002 RMK AO2 SLP143 T00560022 $
KGCC 230953Z AUTO 19005KT 10SM CLR 06/02 A3003 RMK AO2 SLP146 T00610022 $
KGCC 230853Z AUTO 04005KT 10SM CLR 07/03 A3003 RMK AO2 SLP146 T00670028 56008 $
KGCC 230753Z AUTO 17012KT 10SM CLR 09/03 A3003 RMK AO2 SLP146 T00890028 $
KGCC 230653Z AUTO 00000KT 10SM CLR 06/02 A3005 RMK AO2 SLP159 T00560022 402111022 $
KGCC 230553Z AUTO 00000KT 10SM CLR 06/02 A3005 RMK AO2 SLP165 T00560022 10194 20056 51003 $
KGCC 230453Z AUTO 12009KT 10SM CLR 11/04 A3005 RMK AO2 SLP161 T01060044 $
KGCC 230353Z AUTO 11004KT 10SM CLR 10/04 A3006 RMK AO2 SLP166 T01000039 $
KGCC 230253Z AUTO 06008KT 10SM CLR 12/04 A3005 RMK AO2 SLP162 T01220039 53009 $
KGCC 230153Z AUTO 04009KT 10SM SCT090 15/04 A3003 RMK AO2 SLP153 T01500044 $
KGCC 230053Z AUTO 09008KT 10SM SCT090 19/04 A3002 RMK AO2 SLP148 T01890039 $
KGCC 222353Z AUTO 08008KT 10SM OVC090 19/03 A3001 RMK AO2 SLP153 T01940033 10211 20133 56013 $
KGCC 222253Z AUTO 09005KT 10SM BKN080 20/03 A3002 RMK AO2 SLP152 T02000028 $
KGCC 222153Z AUTO VRB03KT 10SM FEW070 21/03 A3003 RMK AO2 SLP152 T02060033 $
KGCC 222053Z AUTO VRB04KT 10SM CLR 19/05 A3006 RMK AO2 SLP161 T01940050 58023 $
KGCC 221953Z AUTO VRB06KT 10SM CLR 17/04 A3009 RMK AO2 SLP173 T01720044 $
KGCC 221853Z AUTO VRB05KT 10SM CLR 16/05 A3011 RMK AO2 SLP182 T01610050 $
KGCC 221753Z AUTO VRB03KT 10SM CLR 14/05 A3014 RMK AO2 SLP193 T01440050 10144 21011 58010 $
KGCC 221653Z AUTO 00000KT 10SM CLR 12/04 A3016 RMK AO2 SLP205 T01170039 $
KGCC 221553Z AUTO 03003KT 10SM CLR 10/03 A3016 RMK AO2 SLP207 T01000033 $
KGCC 221453Z AUTO 36004KT 10SM CLR 08/03 A3017 RMK AO2 SLP211 T00780033 50007 $
KGCC 221353Z AUTO 35009KT 10SM CLR 07/02 A3017 RMK AO2 SLP215 T00670022 $
KGCC 221253Z AUTO 32004KT 10SM CLR 03/02 A3016 RMK AO2 SLP209 T00330017 $
KGCC 221153Z AUTO 00000KT 10SM CLR M01/M02 A3014 RMK AO2 SLP209 T10111017 10056 21022 51019 $
KGCC 221053Z AUTO 00000KT 10SM CLR M01/M01 A3013 RMK AO2 SLP204 T10061011 $
KGCC 220953Z AUTO 23003G16KT 10SM CLR 03/01 A3011 RMK AO2 SLP190 T00280011 $
KGCC 220853Z AUTO 17014KT 10SM CLR 03/02 A3008 RMK AO2 SLP181 T00330017 53003 $
KGCC 220753Z AUTO 16014KT 10SM CLR 04/02 A3008 RMK AO2 SLP179 T00440022 $